Time;durP1;ratioP1;P1;durP2;ratioP2;P2;SDS_P1;SDS_P2;PMS_P1;PMS_P2;Temp;Humidity;BMP_temperature;BMP_pressure;BME280_temperature;BME280_humidity;BME280_pressure;Samples;Min_cycle;Max_cycle;Signal;HPM_P1;HPM_P2
2023/09/08 00:01:46;;;;;;;15.20;6.47;;;;;;;;;;5003551;28;98455;-69
2023/09/08 00:04:14;;;;;;;7.03;5.85;;;;;;;;;;5003825;28;98401;-69
2023/09/08 00:06:41;;;;;;;8.35;6.22;;;;;;;;;;5002397;28;101501;-70
2023/09/08 00:09:07;;;;;;;7.15;6.55;;;;;;;;;;5005406;28;99525;-70
2023/09/08 00:11:34;;;;;;;7.57;6.97;;;;;;;;;;5003238;28;99480;-70
2023/09/08 00:14:00;;;;;;;8.73;6.35;;;;;;;;;;5004486;28;98367;-70
2023/09/08 00:16:29;;;;;;;7.53;6.82;;;;;;;;;;5002885;28;100121;-70
2023/09/08 00:18:59;;;;;;;7.00;6.40;;;;;;;;;;5001761;28;99945;-70
2023/09/08 00:21:26;;;;;;;9.13;6.93;;;;;;;;;;5000896;28;100356;-70
2023/09/08 00:23:53;;;;;;;7.10;6.45;;;;;;;;;;5000438;28;99352;-70
2023/09/08 00:26:20;;;;;;;8.18;7.47;;;;;;;;;;5001788;28;99522;-71
2023/09/08 00:28:47;;;;;;;7.53;7.00;;;;;;;;;;5013382;28;99887;-70
2023/09/08 00:31:13;;;;;;;11.82;7.80;;;;;;;;;;5004925;28;99371;-69
2023/09/08 00:33:42;;;;;;;13.90;7.70;;;;;;;;;;5005571;28;98523;-70
2023/09/08 00:36:09;;;;;;;8.15;6.65;;;;;;;;;;5006140;28;99217;-69
2023/09/08 00:38:35;;;;;;;9.07;7.70;;;;;;;;;;5007804;28;98806;-69
2023/09/08 00:41:04;;;;;;;8.82;7.93;;;;;;;;;;5010096;28;98585;-70
2023/09/08 00:43:30;;;;;;;8.95;8.10;;;;;;;;;;5004363;28;99292;-70
2023/09/08 00:45:58;;;;;;;8.63;7.82;;;;;;;;;;5006364;28;99202;-70
2023/09/08 00:48:25;;;;;;;11.35;8.40;;;;;;;;;;5008129;28;99297;-70
2023/09/08 00:50:52;;;;;;;11.35;8.38;;;;;;;;;;5004460;28;99518;-70
2023/09/08 00:53:19;;;;;;;10.98;8.95;;;;;;;;;;5007091;28;101739;-70
2023/09/08 00:55:45;;;;;;;10.73;8.20;;;;;;;;;;5008254;28;98453;-70
2023/09/08 00:58:12;;;;;;;9.50;8.70;;;;;;;;;;5003074;28;101948;-70
2023/09/08 01:00:38;;;;;;;9.93;8.57;;;;;;;;;;5007272;28;100831;-70
2023/09/08 01:03:05;;;;;;;10.77;9.32;;;;;;;;;;5004656;28;101222;-70
2023/09/08 01:05:32;;;;;;;13.02;9.95;;;;;;;;;;5004334;28;100590;-71
2023/09/08 01:07:59;;;;;;;10.50;8.55;;;;;;;;;;5006510;28;98246;-71
2023/09/08 01:10:26;;;;;;;13.88;9.48;;;;;;;;;;5004488;28;99725;-70
2023/09/08 01:12:53;;;;;;;10.80;9.02;;;;;;;;;;5008038;28;102032;-69
2023/09/08 01:15:19;;;;;;;15.35;9.85;;;;;;;;;;5006112;28;98190;-70
2023/09/08 01:17:46;;;;;;;11.50;9.85;;;;;;;;;;5002733;28;99022;-70
2023/09/08 01:20:17;;;;;;;10.68;9.68;;;;;;;;;;5002108;28;99798;-70
2023/09/08 01:23:02;;;;;;;11.85;9.52;;;;;;;;;;5003309;28;98355;-70
2023/09/08 01:25:29;;;;;;;11.52;10.40;;;;;;;;;;5002688;28;99938;-71
2023/09/08 01:27:58;;;;;;;10.82;9.85;;;;;;;;;;5003864;28;99942;-70
2023/09/08 01:30:26;;;;;;;11.55;10.40;;;;;;;;;;5005139;28;98557;-71
2023/09/08 01:32:53;;;;;;;12.77;10.63;;;;;;;;;;5004021;28;99938;-68
2023/09/08 01:35:20;;;;;;;11.93;10.63;;;;;;;;;;5004518;28;99876;-70
2023/09/08 01:37:47;;;;;;;11.23;9.68;;;;;;;;;;5001343;28;100450;-69
2023/09/08 01:40:15;;;;;;;15.00;10.02;;;;;;;;;;5003400;28;99108;-70
2023/09/08 01:42:41;;;;;;;10.65;9.65;;;;;;;;;;5004283;28;98518;-70
2023/09/08 01:45:08;;;;;;;11.77;10.57;;;;;;;;;;5004124;28;99521;-69
2023/09/08 01:47:35;;;;;;;11.90;10.90;;;;;;;;;;5007620;28;99743;-69
2023/09/08 01:50:01;;;;;;;13.10;11.25;;;;;;;;;;5004768;28;98537;-69
2023/09/08 01:52:28;;;;;;;13.13;11.35;;;;;;;;;;5006982;28;98841;-70
2023/09/08 01:54:54;;;;;;;13.40;11.05;;;;;;;;;;5007252;28;99386;-70
2023/09/08 01:57:21;;;;;;;12.85;10.82;;;;;;;;;;5009552;28;98839;-70
2023/09/08 01:59:48;;;;;;;12.45;11.30;;;;;;;;;;5007205;28;98268;-70
2023/09/08 02:02:14;;;;;;;12.93;11.25;;;;;;;;;;5004712;28;101081;-69
2023/09/08 02:04:41;;;;;;;12.05;10.85;;;;;;;;;;5007236;28;98754;-70
2023/09/08 02:07:07;;;;;;;12.15;10.85;;;;;;;;;;5008324;28;98620;-70
2023/09/08 02:09:35;;;;;;;12.98;11.38;;;;;;;;;;4999968;28;99758;-70
2023/09/08 02:12:01;;;;;;;16.40;11.85;;;;;;;;;;5005058;28;100010;-70
2023/09/08 02:14:28;;;;;;;13.90;11.40;;;;;;;;;;5003882;28;99762;-69
2023/09/08 02:16:55;;;;;;;18.77;11.38;;;;;;;;;;5004204;28;101240;-70
2023/09/08 02:19:23;;;;;;;13.07;11.63;;;;;;;;;;5008634;28;99097;-68
2023/09/08 02:21:49;;;;;;;13.75;11.75;;;;;;;;;;5008679;28;99901;-69
2023/09/08 02:24:16;;;;;;;13.32;12.00;;;;;;;;;;5005557;28;98996;-69
2023/09/08 02:26:42;;;;;;;13.32;12.02;;;;;;;;;;5007150;28;98654;-70
2023/09/08 02:29:09;;;;;;;13.02;11.80;;;;;;;;;;5006887;28;99592;-69
2023/09/08 02:31:35;;;;;;;15.13;12.82;;;;;;;;;;5004309;28;99953;-70
2023/09/08 02:34:04;;;;;;;16.52;12.50;;;;;;;;;;5007321;28;99363;-70
2023/09/08 02:36:31;;;;;;;13.27;11.88;;;;;;;;;;5008007;28;100623;-71
2023/09/08 02:38:59;;;;;;;13.32;12.15;;;;;;;;;;5004298;28;99999;-70
2023/09/08 02:41:25;;;;;;;20.50;12.80;;;;;;;;;;5008419;28;98696;-70
2023/09/08 02:43:51;;;;;;;14.27;12.82;;;;;;;;;;5007434;28;98885;-69
2023/09/08 02:46:18;;;;;;;24.05;14.30;;;;;;;;;;5006546;28;99294;-70
2023/09/08 02:48:44;;;;;;;13.50;12.25;;;;;;;;;;5008878;28;99393;-71
2023/09/08 02:51:12;;;;;;;14.73;12.63;;;;;;;;;;5002278;28;100172;-70
2023/09/08 02:53:38;;;;;;;16.38;13.05;;;;;;;;;;5004406;28;98323;-71
2023/09/08 02:56:05;;;;;;;18.70;13.30;;;;;;;;;;5003233;28;100283;-70
2023/09/08 02:58:35;;;;;;;14.07;12.65;;;;;;;;;;5004335;28;99049;-70
2023/09/08 03:01:13;;;;;;;16.02;13.25;;;;;;;;;;5003097;28;98826;-70
2023/09/08 03:03:43;;;;;;;17.98;12.20;;;;;;;;;;5006803;28;99339;-71
2023/09/08 03:06:10;;;;;;;17.88;12.20;;;;;;;;;;5001692;28;99480;-70
2023/09/08 03:08:38;;;;;;;15.27;13.25;;;;;;;;;;5003880;28;100838;-70
2023/09/08 03:11:05;;;;;;;17.80;13.13;;;;;;;;;;5004646;28;99375;-70
2023/09/08 03:13:34;;;;;;;16.15;12.88;;;;;;;;;;5002777;28;98277;-70
2023/09/08 03:16:05;;;;;;;14.15;12.68;;;;;;;;;;5009032;28;98690;-70
2023/09/08 03:18:32;;;;;;;14.65;13.15;;;;;;;;;;5006961;28;98804;-69
2023/09/08 03:21:03;;;;;;;14.32;12.88;;;;;;;;;;4999838;28;98333;-69
2023/09/08 03:23:29;;;;;;;14.30;12.88;;;;;;;;;;5003643;28;98646;-70
2023/09/08 03:25:56;;;;;;;16.80;13.88;;;;;;;;;;5003837;28;99938;-70
2023/09/08 03:28:22;;;;;;;14.75;13.18;;;;;;;;;;5006066;28;98469;-70
2023/09/08 03:30:49;;;;;;;14.57;13.07;;;;;;;;;;5006858;28;102280;-70
2023/09/08 03:33:15;;;;;;;17.98;13.50;;;;;;;;;;5002326;28;98820;-70
2023/09/08 03:35:42;;;;;;;14.98;13.50;;;;;;;;;;5001087;28;98730;-70
2023/09/08 03:38:08;;;;;;;19.25;13.88;;;;;;;;;;5001368;28;99157;-69
2023/09/08 03:40:35;;;;;;;22.70;14.73;;;;;;;;;;4999492;28;98483;-70
2023/09/08 03:43:02;;;;;;;19.02;14.80;;;;;;;;;;5000903;28;99108;-70
2023/09/08 03:45:28;;;;;;;20.95;14.45;;;;;;;;;;5006003;28;98881;-70
2023/09/08 03:47:55;;;;;;;16.35;14.25;;;;;;;;;;5014522;28;101192;-71
2023/09/08 03:50:22;;;;;;;20.33;14.55;;;;;;;;;;5005048;28;98780;-70
2023/09/08 03:52:48;;;;;;;15.88;14.20;;;;;;;;;;5008844;28;98698;-70
2023/09/08 03:55:14;;;;;;;17.67;14.90;;;;;;;;;;5003632;28;99883;-68
2023/09/08 03:57:41;;;;;;;15.75;14.30;;;;;;;;;;5006640;28;99968;-69
2023/09/08 04:00:10;;;;;;;17.38;15.00;;;;;;;;;;5003805;28;99462;-69
2023/09/08 04:02:39;;;;;;;21.20;16.00;;;;;;;;;;5000875;28;98860;-70
2023/09/08 04:05:06;;;;;;;15.43;13.82;;;;;;;;;;5005642;28;101658;-70
2023/09/08 04:07:33;;;;;;;19.98;14.75;;;;;;;;;;5007840;28;100011;-70
2023/09/08 04:09:59;;;;;;;16.80;14.98;;;;;;;;;;5004094;28;100038;-70
2023/09/08 04:12:26;;;;;;;19.65;15.30;;;;;;;;;;5003893;28;98510;-69
2023/09/08 04:14:53;;;;;;;17.23;15.52;;;;;;;;;;5015761;27;101571;-70
2023/09/08 04:17:20;;;;;;;16.92;15.23;;;;;;;;;;5001458;28;101623;-69
2023/09/08 04:19:46;;;;;;;17.35;15.10;;;;;;;;;;5004209;28;99807;-70
2023/09/08 04:22:13;;;;;;;23.52;14.93;;;;;;;;;;5004754;28;99601;-70
2023/09/08 04:24:40;;;;;;;17.10;14.85;;;;;;;;;;5001154;28;100820;-69
2023/09/08 04:27:09;;;;;;;18.73;13.82;;;;;;;;;;5002313;28;99263;-70
2023/09/08 04:29:37;;;;;;;27.58;15.63;;;;;;;;;;5019634;28;101477;-70
2023/09/08 04:32:08;;;;;;;19.35;14.88;;;;;;;;;;5001369;28;99094;-70
2023/09/08 04:34:39;;;;;;;25.50;14.15;;;;;;;;;;5000785;28;99648;-70
2023/09/08 04:37:05;;;;;;;23.73;15.60;;;;;;;;;;5001856;28;98866;-70
2023/09/08 04:39:33;;;;;;;28.33;15.93;;;;;;;;;;5002178;28;98567;-70
2023/09/08 04:42:00;;;;;;;24.95;15.18;;;;;;;;;;5014689;28;101041;-70
2023/09/08 04:44:27;;;;;;;17.60;15.77;;;;;;;;;;5001389;28;101923;-71
2023/09/08 04:46:53;;;;;;;17.17;15.15;;;;;;;;;;5003964;28;99905;-70
2023/09/08 04:49:20;;;;;;;20.92;15.63;;;;;;;;;;5001613;28;100212;-70
2023/09/08 04:51:46;;;;;;;19.02;15.48;;;;;;;;;;5005134;28;101960;-69
2023/09/08 04:54:15;;;;;;;25.08;16.23;;;;;;;;;;5032309;27;98568;-70
2023/09/08 04:56:42;;;;;;;18.10;15.10;;;;;;;;;;5002238;28;101905;-70
2023/09/08 04:59:09;;;;;;;16.40;14.73;;;;;;;;;;5002369;28;99598;-70
2023/09/08 05:01:37;;;;;;;21.52;15.38;;;;;;;;;;5002015;28;100750;-68
2023/09/08 05:04:05;;;;;;;19.17;14.95;;;;;;;;;;5013255;28;100079;-69
2023/09/08 05:06:31;;;;;;;17.83;15.95;;;;;;;;;;4999962;28;99825;-70
2023/09/08 05:08:59;;;;;;;30.30;15.70;;;;;;;;;;4998451;28;100603;-69
2023/09/08 05:11:27;;;;;;;27.02;15.32;;;;;;;;;;5001079;28;100360;-69
2023/09/08 05:13:54;;;;;;;20.27;15.13;;;;;;;;;;5001615;28;99792;-70
2023/09/08 05:16:36;;;;;;;21.55;16.20;;;;;;;;;;5001564;28;100124;-70
2023/09/08 05:19:04;;;;;;;22.42;15.30;;;;;;;;;;5000776;28;99450;-69
2023/09/08 05:21:31;;;;;;;18.77;15.98;;;;;;;;;;5017115;28;99386;-70
2023/09/08 05:23:58;;;;;;;23.63;15.23;;;;;;;;;;5002460;28;100077;-68
2023/09/08 05:26:25;;;;;;;26.52;16.70;;;;;;;;;;5000723;28;100395;-70
2023/09/08 05:28:52;;;;;;;16.80;15.00;;;;;;;;;;4998932;28;99854;-69
2023/09/08 05:31:18;;;;;;;16.10;14.35;;;;;;;;;;5001991;28;99954;-70
2023/09/08 05:33:45;;;;;;;26.13;15.25;;;;;;;;;;5003125;28;98562;-68
2023/09/08 05:36:12;;;;;;;19.10;14.98;;;;;;;;;;4998895;28;101722;-70
2023/09/08 05:38:43;;;;;;;15.80;14.10;;;;;;;;;;5001408;28;99829;-69
2023/09/08 05:41:11;;;;;;;17.05;14.88;;;;;;;;;;4999196;28;100792;-69
2023/09/08 05:43:38;;;;;;;15.98;14.38;;;;;;;;;;4999264;28;100844;-69
2023/09/08 05:46:05;;;;;;;17.10;14.13;;;;;;;;;;5003216;28;99124;-70
2023/09/08 05:48:32;;;;;;;16.48;14.60;;;;;;;;;;4998899;28;102563;-71
2023/09/08 05:50:59;;;;;;;21.17;15.70;;;;;;;;;;5002249;28;101614;-70
2023/09/08 05:53:26;;;;;;;15.75;13.93;;;;;;;;;;4998499;28;99885;-69
2023/09/08 05:55:54;;;;;;;21.08;14.35;;;;;;;;;;5003959;28;100670;-69
2023/09/08 05:58:21;;;;;;;18.83;14.23;;;;;;;;;;5005233;28;99664;-70
2023/09/08 06:00:47;;;;;;;18.77;14.55;;;;;;;;;;5007895;28;98376;-70
2023/09/08 06:03:14;;;;;;;20.75;13.50;;;;;;;;;;5006121;28;100750;-69
2023/09/08 06:05:41;;;;;;;16.20;14.15;;;;;;;;;;5005249;28;98852;-70
2023/09/08 06:08:07;;;;;;;15.68;14.07;;;;;;;;;;5010220;28;98427;-71
2023/09/08 06:10:38;;;;;;;18.65;15.77;;;;;;;;;;5009045;28;99845;-71
2023/09/08 06:13:07;;;;;;;14.38;12.88;;;;;;;;;;5008331;28;101221;-71
2023/09/08 06:15:34;;;;;;;14.88;13.13;;;;;;;;;;5002258;28;100384;-70
2023/09/08 06:18:01;;;;;;;17.38;13.77;;;;;;;;;;5005031;28;99968;-70
2023/09/08 06:20:28;;;;;;;17.50;13.00;;;;;;;;;;5023126;27;100373;-70
2023/09/08 06:22:55;;;;;;;17.77;13.23;;;;;;;;;;5005176;28;98961;-70
2023/09/08 06:25:22;;;;;;;15.20;13.55;;;;;;;;;;5004585;28;98634;-68
2023/09/08 06:27:48;;;;;;;13.75;12.38;;;;;;;;;;5002373;28;99780;-70
2023/09/08 06:30:16;;;;;;;14.32;11.80;;;;;;;;;;5002749;28;101276;-71
2023/09/08 06:32:42;;;;;;;13.88;12.38;;;;;;;;;;5015904;28;100228;-70
2023/09/08 06:35:10;;;;;;;17.52;12.10;;;;;;;;;;5009189;28;97884;-71
2023/09/08 06:37:37;;;;;;;17.27;11.13;;;;;;;;;;5001510;28;100416;-71
2023/09/08 06:40:05;;;;;;;12.30;11.05;;;;;;;;;;5041134;27;98241;-70
2023/09/08 06:42:33;;;;;;;15.45;11.23;;;;;;;;;;5008629;28;101674;-70
2023/09/08 06:45:09;;;;;;;12.93;11.13;;;;;;;;;;5008793;28;98517;-70
2023/09/08 06:47:36;;;;;;;13.73;11.68;;;;;;;;;;5010737;28;99804;-71
2023/09/08 06:50:02;;;;;;;20.30;11.32;;;;;;;;;;5010877;28;98661;-72
2023/09/08 06:52:29;;;;;;;12.50;11.00;;;;;;;;;;5007685;28;98365;-71
2023/09/08 06:54:57;;;;;;;14.45;11.35;;;;;;;;;;5009307;28;99565;-71
2023/09/08 06:57:24;;;;;;;13.40;12.00;;;;;;;;;;5002550;28;100025;-70
2023/09/08 06:59:52;;;;;;;15.93;10.48;;;;;;;;;;4997571;28;98389;-71
2023/09/08 07:02:18;;;;;;;14.25;11.80;;;;;;;;;;5011452;28;98293;-71
2023/09/08 07:04:45;;;;;;;11.73;10.60;;;;;;;;;;4992137;28;98819;-70
2023/09/08 07:07:12;;;;;;;14.43;11.50;;;;;;;;;;4988352;28;98916;-70
2023/09/08 07:09:39;;;;;;;10.65;9.60;;;;;;;;;;4989564;28;99859;-71
2023/09/08 07:12:06;;;;;;;14.55;10.45;;;;;;;;;;5003695;28;98351;-70
2023/09/08 07:14:33;;;;;;;11.63;10.25;;;;;;;;;;4987817;28;99396;-71
2023/09/08 07:16:59;;;;;;;15.10;11.10;;;;;;;;;;5003766;28;99338;-70
2023/09/08 07:19:27;;;;;;;19.20;11.07;;;;;;;;;;5030025;27;98201;-71
2023/09/08 07:21:54;;;;;;;11.98;10.70;;;;;;;;;;5002291;28;99939;-70
2023/09/08 07:24:21;;;;;;;13.05;10.88;;;;;;;;;;5010784;28;98310;-70
2023/09/08 07:26:48;;;;;;;12.25;10.73;;;;;;;;;;5006132;28;98264;-70
2023/09/08 07:29:14;;;;;;;16.02;11.02;;;;;;;;;;5008814;28;98893;-70
2023/09/08 07:31:42;;;;;;;11.20;9.93;;;;;;;;;;4995197;28;98256;-69
2023/09/08 07:34:08;;;;;;;13.98;11.32;;;;;;;;;;4987445;28;98463;-70
2023/09/08 07:36:36;;;;;;;15.63;10.10;;;;;;;;;;4987231;28;100948;-71
2023/09/08 07:39:03;;;;;;;15.13;10.65;;;;;;;;;;4987893;28;98283;-70
2023/09/08 07:41:29;;;;;;;14.43;10.40;;;;;;;;;;4986197;28;100458;-69
2023/09/08 07:43:56;;;;;;;15.13;11.43;;;;;;;;;;4992198;28;98988;-70
2023/09/08 07:46:24;;;;;;;13.50;10.43;;;;;;;;;;4987040;28;98603;-70
2023/09/08 07:48:50;;;;;;;14.95;10.23;;;;;;;;;;4988197;28;99555;-70
2023/09/08 07:51:17;;;;;;;11.05;10.00;;;;;;;;;;4995026;28;98771;-69
2023/09/08 07:53:43;;;;;;;12.15;9.65;;;;;;;;;;5009022;28;98663;-70
2023/09/08 07:56:10;;;;;;;15.00;10.00;;;;;;;;;;5009294;28;99823;-69
2023/09/08 07:58:38;;;;;;;13.45;9.70;;;;;;;;;;5009261;28;98620;-70
2023/09/08 08:01:04;;;;;;;10.60;9.52;;;;;;;;;;5007921;28;98565;-70
2023/09/08 08:03:30;;;;;;;9.60;8.65;;;;;;;;;;5006751;28;101422;-69
2023/09/08 08:06:00;;;;;;;10.55;9.48;;;;;;;;;;5010594;28;98276;-70
2023/09/08 08:08:26;;;;;;;12.23;9.70;;;;;;;;;;5007198;28;102203;-70
2023/09/08 08:10:53;;;;;;;14.93;8.88;;;;;;;;;;5008565;28;98292;-70
2023/09/08 08:13:20;;;;;;;12.70;8.93;;;;;;;;;;5007956;28;99243;-68
2023/09/08 08:15:47;;;;;;;10.57;8.98;;;;;;;;;;5005912;28;98986;-71
2023/09/08 08:18:13;;;;;;;9.45;8.55;;;;;;;;;;5008241;28;98212;-70
2023/09/08 08:20:40;;;;;;;9.80;8.27;;;;;;;;;;5008414;28;99384;-70
2023/09/08 08:23:07;;;;;;;10.00;8.98;;;;;;;;;;5007963;28;100070;-69
2023/09/08 08:25:34;;;;;;;13.63;8.70;;;;;;;;;;5007988;28;98327;-70
2023/09/08 08:28:00;;;;;;;11.38;9.05;;;;;;;;;;5011731;28;98081;-70
2023/09/08 08:30:28;;;;;;;10.52;9.40;;;;;;;;;;5005985;28;98256;-69
2023/09/08 08:32:55;;;;;;;13.15;9.45;;;;;;;;;;5010252;28;99342;-69
2023/09/08 08:35:21;;;;;;;8.95;8.05;;;;;;;;;;5011308;28;99859;-70
2023/09/08 08:37:48;;;;;;;10.93;9.38;;;;;;;;;;5011036;28;98219;-70
2023/09/08 08:40:14;;;;;;;10.00;9.00;;;;;;;;;;5011382;28;99280;-70
2023/09/08 08:42:42;;;;;;;10.85;7.88;;;;;;;;;;5010957;28;98895;-70
2023/09/08 08:45:08;;;;;;;9.60;8.75;;;;;;;;;;5010952;28;98236;-70
2023/09/08 08:47:35;;;;;;;11.07;8.65;;;;;;;;;;5010841;28;99495;-71
2023/09/08 08:50:03;;;;;;;11.45;9.02;;;;;;;;;;5013558;28;99049;-70
2023/09/08 08:52:29;;;;;;;10.25;8.60;;;;;;;;;;5011070;28;99361;-69
2023/09/08 08:54:56;;;;;;;9.70;8.73;;;;;;;;;;5010487;28;100245;-70
2023/09/08 08:57:23;;;;;;;9.93;8.38;;;;;;;;;;5010108;28;98234;-69
2023/09/08 08:59:51;;;;;;;9.18;8.20;;;;;;;;;;5011362;28;98584;-69
2023/09/08 09:02:18;;;;;;;9.55;8.65;;;;;;;;;;5011186;28;98782;-69
2023/09/08 09:04:45;;;;;;;8.10;7.45;;;;;;;;;;5010472;28;98248;-69
2023/09/08 09:07:11;;;;;;;17.95;7.95;;;;;;;;;;5010815;28;98619;-70
2023/09/08 09:09:40;;;;;;;7.88;7.15;;;;;;;;;;5010721;28;98932;-69
2023/09/08 09:12:06;;;;;;;14.57;7.75;;;;;;;;;;5012609;28;98290;-70
2023/09/08 09:14:33;;;;;;;10.82;9.68;;;;;;;;;;5009611;28;99186;-70
2023/09/08 09:17:01;;;;;;;12.98;7.18;;;;;;;;;;5010833;28;98200;-70
2023/09/08 09:19:28;;;;;;;11.45;6.80;;;;;;;;;;5009070;28;99541;-70
2023/09/08 09:21:57;;;;;;;7.53;6.72;;;;;;;;;;5011024;28;100171;-70
2023/09/08 09:24:33;;;;;;;10.50;6.32;;;;;;;;;;5011097;28;98040;-70
2023/09/08 09:27:00;;;;;;;7.32;6.53;;;;;;;;;;5010228;28;98855;-70
2023/09/08 09:29:27;;;;;;;7.00;6.38;;;;;;;;;;5010710;28;99042;-70
2023/09/08 09:31:55;;;;;;;10.45;7.40;;;;;;;;;;5005000;28;98479;-70
2023/09/08 09:34:22;;;;;;;9.50;6.68;;;;;;;;;;4989627;28;99807;-71
2023/09/08 09:36:51;;;;;;;6.65;6.15;;;;;;;;;;5000532;28;98270;-70
2023/09/08 09:39:22;;;;;;;7.78;6.82;;;;;;;;;;5009758;28;99616;-70
2023/09/08 09:41:49;;;;;;;9.70;7.00;;;;;;;;;;5010750;28;99814;-70
2023/09/08 09:44:16;;;;;;;8.00;7.18;;;;;;;;;;5009227;28;98231;-69
2023/09/08 09:46:43;;;;;;;6.95;6.25;;;;;;;;;;5009939;28;98548;-70
2023/09/08 09:49:11;;;;;;;7.28;5.45;;;;;;;;;;5010499;28;99400;-70
2023/09/08 09:51:44;;;;;;;5.75;5.18;;;;;;;;;;5010697;28;98297;-70
2023/09/08 09:54:11;;;;;;;12.82;6.10;;;;;;;;;;5013099;28;98816;-69
2023/09/08 09:56:38;;;;;;;12.60;6.70;;;;;;;;;;5006272;28;99192;-69
2023/09/08 09:59:09;;;;;;;6.85;6.25;;;;;;;;;;4999374;28;99441;-69
2023/09/08 10:01:36;;;;;;;7.35;5.97;;;;;;;;;;5001822;28;99953;-69
2023/09/08 10:04:03;;;;;;;6.82;6.22;;;;;;;;;;4999236;28;98251;-69
2023/09/08 10:06:33;;;;;;;13.27;7.07;;;;;;;;;;5002859;27;99721;-69
2023/09/08 10:09:01;;;;;;;7.75;6.20;;;;;;;;;;5002323;28;99936;-70
2023/09/08 10:11:28;;;;;;;14.65;6.63;;;;;;;;;;5003520;28;98343;-68
2023/09/08 10:13:57;;;;;;;6.88;5.95;;;;;;;;;;5002316;28;98748;-70
2023/09/08 10:16:25;;;;;;;5.95;5.45;;;;;;;;;;5001858;28;101584;-70
2023/09/08 10:18:52;;;;;;;6.13;5.22;;;;;;;;;;5000987;28;100117;-70
2023/09/08 10:21:21;;;;;;;7.22;6.32;;;;;;;;;;4999133;28;100517;-70
2023/09/08 10:23:55;;;;;;;6.50;5.93;;;;;;;;;;5009246;28;98629;-70
2023/09/08 10:26:26;;;;;;;8.38;6.25;;;;;;;;;;5009642;28;98743;-70
2023/09/08 10:28:55;;;;;;;15.82;6.70;;;;;;;;;;5009363;28;99443;-69
2023/09/08 10:31:26;;;;;;;10.50;6.95;;;;;;;;;;5010077;28;98470;-69
2023/09/08 10:33:56;;;;;;;8.98;7.03;;;;;;;;;;5009164;28;99371;-69
2023/09/08 10:36:25;;;;;;;7.57;6.78;;;;;;;;;;5008411;28;99296;-69
2023/09/08 10:38:54;;;;;;;9.27;6.72;;;;;;;;;;5011637;28;98266;-69
2023/09/08 10:41:23;;;;;;;5.97;5.45;;;;;;;;;;5009020;28;99103;-70
2023/09/08 10:43:59;;;;;;;7.88;6.03;;;;;;;;;;5006174;28;98239;-70
2023/09/08 10:46:26;;;;;;;15.32;6.50;;;;;;;;;;5009361;28;98844;-70
2023/09/08 10:48:54;;;;;;;5.90;5.40;;;;;;;;;;5007695;28;100128;-70
2023/09/08 10:51:22;;;;;;;13.23;6.22;;;;;;;;;;5002378;28;99972;-69
2023/09/08 10:53:52;;;;;;;6.18;5.45;;;;;;;;;;5002212;28;98617;-71
2023/09/08 10:56:18;;;;;;;5.68;5.15;;;;;;;;;;5008592;28;99051;-70
2023/09/08 10:58:49;;;;;;;9.48;5.35;;;;;;;;;;4991232;28;98354;-70
2023/09/08 11:01:17;;;;;;;6.65;6.03;;;;;;;;;;5008230;28;98692;-70
2023/09/08 11:03:46;;;;;;;10.73;6.07;;;;;;;;;;5008648;28;98188;-70
2023/09/08 11:06:15;;;;;;;6.60;5.70;;;;;;;;;;5008876;28;99367;-70
2023/09/08 11:08:42;;;;;;;9.90;5.07;;;;;;;;;;5009057;28;99250;-71
2023/09/08 11:11:13;;;;;;;7.32;5.10;;;;;;;;;;5006922;28;98572;-71
2023/09/08 11:13:41;;;;;;;;;;;;;;;;;;5008053;28;98265;-70
2023/09/08 11:16:08;;;;;;;5.80;5.18;;;;;;;;;;5002882;28;100186;-71
2023/09/08 11:18:35;;;;;;;9.43;5.35;;;;;;;;;;5007970;28;98333;-71
2023/09/08 11:21:07;;;;;;;5.82;4.90;;;;;;;;;;4995984;28;99303;-71
2023/09/08 11:23:34;;;;;;;7.63;5.32;;;;;;;;;;4990435;28;99252;-70
2023/09/08 11:26:00;;;;;;;6.90;5.22;;;;;;;;;;5001418;28;99483;-70
2023/09/08 11:28:28;;;;;;;8.05;5.30;;;;;;;;;;5002240;28;99319;-70
2023/09/08 11:30:55;;;;;;;5.38;4.72;;;;;;;;;;5000453;28;99399;-71
2023/09/08 11:33:25;;;;;;;9.15;5.63;;;;;;;;;;5001122;28;99355;-70
2023/09/08 11:35:54;;;;;;;5.88;4.53;;;;;;;;;;5002869;28;99881;-70
2023/09/08 11:38:27;;;;;;;4.88;4.45;;;;;;;;;;5003540;28;99607;-70
2023/09/08 11:40:55;;;;;;;6.35;4.45;;;;;;;;;;4999647;28;99538;-70
2023/09/08 11:43:21;;;;;;;6.38;5.25;;;;;;;;;;5005183;28;99880;-70
2023/09/08 11:45:48;;;;;;;5.82;5.22;;;;;;;;;;5001286;28;99797;-70
2023/09/08 11:48:15;;;;;;;11.20;4.88;;;;;;;;;;4997894;28;100115;-69
2023/09/08 11:50:43;;;;;;;8.50;4.68;;;;;;;;;;5001141;28;99772;-69
2023/09/08 11:53:11;;;;;;;10.75;6.05;;;;;;;;;;5003492;28;99734;-69
2023/09/08 11:55:37;;;;;;;6.90;4.82;;;;;;;;;;5002203;28;98958;-68
2023/09/08 11:58:04;;;;;;;7.13;4.93;;;;;;;;;;4999725;28;99696;-70
2023/09/08 12:00:32;;;;;;;4.38;4.00;;;;;;;;;;4998086;28;100101;-70
2023/09/08 12:03:11;;;;;;;4.68;3.95;;;;;;;;;;5002172;28;99877;-70
2023/09/08 12:05:38;;;;;;;6.00;4.13;;;;;;;;;;5006584;28;98282;-70
2023/09/08 12:08:05;;;;;;;12.15;5.20;;;;;;;;;;5004192;28;99650;-68
2023/09/08 12:10:37;;;;;;;4.70;4.30;;;;;;;;;;5003064;28;99894;-70
2023/09/08 12:13:04;;;;;;;5.10;4.38;;;;;;;;;;5005117;28;98599;-70
2023/09/08 12:15:34;;;;;;;6.10;4.47;;;;;;;;;;5009817;28;101097;-68
2023/09/08 12:18:02;;;;;;;5.22;4.35;;;;;;;;;;5012295;28;98058;-69
2023/09/08 12:20:29;;;;;;;5.38;4.43;;;;;;;;;;5012321;28;98734;-69
2023/09/08 12:22:57;;;;;;;6.13;3.92;;;;;;;;;;5002823;28;99457;-69
2023/09/08 12:25:23;;;;;;;10.90;4.25;;;;;;;;;;5012102;28;98204;-70
2023/09/08 12:27:51;;;;;;;8.70;4.32;;;;;;;;;;5012789;28;99409;-69
2023/09/08 12:30:21;;;;;;;4.85;3.90;;;;;;;;;;5008452;28;99080;-70
2023/09/08 12:32:48;;;;;;;5.88;4.43;;;;;;;;;;5011890;28;100367;-69
2023/09/08 12:35:24;;;;;;;10.77;4.53;;;;;;;;;;5006286;28;100038;-69
2023/09/08 12:37:56;;;;;;;8.05;4.22;;;;;;;;;;5010644;28;98237;-70
2023/09/08 12:40:23;;;;;;;7.97;3.95;;;;;;;;;;5008863;28;99026;-69
2023/09/08 12:42:50;;;;;;;4.60;4.18;;;;;;;;;;5007009;28;100440;-70
2023/09/08 12:45:32;;;;;;;4.45;4.05;;;;;;;;;;5008386;28;98222;-69
2023/09/08 12:48:01;;;;;;;5.32;3.95;;;;;;;;;;5011570;28;99460;-69
2023/09/08 12:50:28;;;;;;;8.07;4.05;;;;;;;;;;5013406;28;99931;-70
2023/09/08 12:52:54;;;;;;;6.72;3.78;;;;;;;;;;5011718;28;98465;-69
2023/09/08 12:55:21;;;;;;;4.78;4.03;;;;;;;;;;5011261;28;99902;-70
2023/09/08 12:57:48;;;;;;;5.18;4.28;;;;;;;;;;5010616;28;98280;-70
2023/09/08 13:00:14;;;;;;;4.13;3.72;;;;;;;;;;5010955;28;99381;-69
2023/09/08 13:02:44;;;;;;;11.13;4.13;;;;;;;;;;5010309;28;100026;-70
2023/09/08 13:05:10;;;;;;;11.30;4.47;;;;;;;;;;5010018;28;99980;-69
2023/09/08 13:07:37;;;;;;;4.95;4.53;;;;;;;;;;5010475;28;99652;-67
2023/09/08 13:10:04;;;;;;;4.40;4.10;;;;;;;;;;5011330;28;100279;-70
2023/09/08 13:12:31;;;;;;;7.57;4.00;;;;;;;;;;5013722;28;98405;-69
2023/09/08 13:14:57;;;;;;;4.43;4.03;;;;;;;;;;5010176;28;99252;-70
2023/09/08 13:17:24;;;;;;;5.88;4.10;;;;;;;;;;5009861;28;97978;-68
2023/09/08 13:19:50;;;;;;;9.50;4.65;;;;;;;;;;5010114;28;98721;-70
2023/09/08 13:22:17;;;;;;;6.30;3.75;;;;;;;;;;5010294;28;99027;-69
2023/09/08 13:24:43;;;;;;;4.13;3.83;;;;;;;;;;5006540;28;98915;-70
2023/09/08 13:27:11;;;;;;;4.03;3.70;;;;;;;;;;4989986;28;98533;-70
2023/09/08 13:29:37;;;;;;;9.15;3.85;;;;;;;;;;4990749;28;100493;-69
2023/09/08 13:32:04;;;;;;;8.18;4.15;;;;;;;;;;5007046;28;99977;-69
2023/09/08 13:34:32;;;;;;;4.63;3.80;;;;;;;;;;5013821;28;99429;-69
2023/09/08 13:36:59;;;;;;;4.15;3.85;;;;;;;;;;5010202;28;98228;-70
2023/09/08 13:39:25;;;;;;;5.45;3.65;;;;;;;;;;5009670;28;98620;-69
2023/09/08 13:41:55;;;;;;;7.00;3.65;;;;;;;;;;5010230;28;99853;-69
2023/09/08 13:44:24;;;;;;;6.20;3.85;;;;;;;;;;5009765;28;98219;-70
2023/09/08 13:46:51;;;;;;;3.88;3.55;;;;;;;;;;5009372;28;98504;-69
2023/09/08 13:49:18;;;;;;;4.80;3.70;;;;;;;;;;5009816;28;99226;-67
2023/09/08 13:51:46;;;;;;;8.73;5.88;;;;;;;;;;5008537;28;99161;-69
2023/09/08 13:54:15;;;;;;;6.22;4.90;;;;;;;;;;5012766;28;98380;-69
2023/09/08 13:56:43;;;;;;;4.93;4.25;;;;;;;;;;5009775;28;98237;-69
2023/09/08 13:59:11;;;;;;;4.47;3.45;;;;;;;;;;5005022;28;99469;-69
2023/09/08 14:01:39;;;;;;;6.22;4.20;;;;;;;;;;5009082;28;100532;-68
2023/09/08 14:04:09;;;;;;;5.97;3.97;;;;;;;;;;5009990;28;98102;-69
2023/09/08 14:06:36;;;;;;;5.63;4.07;;;;;;;;;;5007819;28;98493;-69
2023/09/08 14:09:11;;;;;;;9.00;4.05;;;;;;;;;;5007418;28;99060;-70
2023/09/08 14:11:41;;;;;;;4.35;3.97;;;;;;;;;;5009085;28;98359;-69
2023/09/08 14:14:27;;;;;;;7.93;3.70;;;;;;;;;;5006126;28;99521;-69
2023/09/08 14:16:54;;;;;;;7.00;3.80;;;;;;;;;;5011976;28;99939;-69
2023/09/08 14:19:20;;;;;;;3.60;3.30;;;;;;;;;;5009677;28;99163;-69
2023/09/08 14:21:47;;;;;;;3.97;3.20;;;;;;;;;;5009009;28;98999;-70
2023/09/08 14:24:13;;;;;;;3.05;2.85;;;;;;;;;;5009127;28;99359;-69
2023/09/08 14:26:39;;;;;;;3.50;3.25;;;;;;;;;;5010150;28;99430;-70
2023/09/08 14:29:06;;;;;;;8.00;3.72;;;;;;;;;;5008345;28;99678;-69